Time,TemperatureF,DewpointF,PressureIn,WindDirection,WindDirectionDegrees,WindSpeedMPH,WindSpeedGustMPH,Humidity,HourlyPrecipIn,Conditions,Clouds,dailyrainin,SoftwareType,DateUTC
2013-04-23 00:03:00,-999.0,-99.9,30.15,North,10,18.0,24.0,-999,-99.99,,,-99.99,,2013-04-23 04:03:00,
2013-04-23 00:13:00,55.0,-99.9,30.15,North,-999,-999.0,-999.0,-999,-99.99,,,-99.99,,2013-04-23 04:13:00,
2013-04-23 00:23:00,-999.0,-99.9,30.14,North,10,20.0,24.0,-999,-99.99,,,-99.99,,2013-04-23 04:23:00,
2013-04-23 00:33:00,56.0,-99.9,30.14,North,-999,-999.0,-999.0,-999,-99.99,,,-99.99,,2013-04-23 04:33:00,
2013-04-23 00:44:00,55.0,-99.9,30.14,North,6,19.0,23.0,-999,-99.99,,,-99.99,,2013-04-23 04:44:00,
2013-04-23 00:53:00,55.0,-99.9,30.14,North,-999,-999.0,-999.0,-999,-99.99,,,-99.99,,2013-04-23 04:53:00,
2013-04-23 01:02:00,55.0,-99.9,30.14,North,-999,-999.0,-999.0,-999,-99.99,,,-99.99,,2013-04-23 05:02:00,
2013-04-23 01:12:00,55.0,-99.9,30.14,North,-999,-999.0,-999.0,-999,-99.99,,,-99.99,,2013-04-23 05:12:00,
2013-04-23 01:22:00,-999.0,-99.9,30.14,North,6,18.0,26.0,-999,-99.99,,,-99.99,,2013-04-23 05:22:00,
2013-04-23 01:33:00,55.0,-99.9,30.13,North,-999,-999.0,-999.0,-999,-99.99,,,-99.99,,2013-04-23 05:33:00,
2013-04-23 01:43:00,55.0,-99.9,30.13,North,-999,-999.0,-999.0,-999,-99.99,,,-99.99,,2013-04-23 05:43:00,
2013-04-23 01:52:00,55.0,-99.9,30.13,North,-999,-999.0,-999.0,-999,-99.99,,,-99.99,,2013-04-23 05:52:00,
2013-04-23 02:02:00,55.0,-99.9,30.13,North,-999,-999.0,-999.0,-999,-99.99,,,-99.99,,2013-04-23 06:02:00,
2013-04-23 02:12:00,55.0,-99.9,30.12,North,6,19.0,25.0,-999,-99.99,,,-99.99,,2013-04-23 06:12:00,
2013-04-23 02:22:00,-999.0,-99.9,30.12,North,9,20.0,25.0,-999,-99.99,,,-99.99,,2013-04-23 06:22:00,
2013-04-23 02:33:00,-999.0,-99.9,30.11,North,6,18.0,26.0,-999,-99.99,,,-99.99,,2013-04-23 06:33:00,
2013-04-23 02:42:00,-999.0,-99.9,30.11,North,5,19.0,25.0,-999,-99.99,,,-99.99,,2013-04-23 06:42:00,
2013-04-23 02:52:00,-999.0,-99.9,30.10,North,5,20.0,24.0,-999,-99.99,,,-99.99,,2013-04-23 06:52:00,
2013-04-23 03:02:00,-999.0,-99.9,30.10,North,5,20.0,30.0,-999,-99.99,,,-99.99,,2013-04-23 07:02:00,
2013-04-23 03:11:00,54.0,-99.9,30.09,North,9,18.0,24.0,-999,-99.99,,,-99.99,,2013-04-23 07:11:00,
2013-04-23 03:22:00,-999.0,-99.9,30.09,North,8,17.0,24.0,-999,-99.99,,,-99.99,,2013-04-23 07:22:00,
2013-04-23 03:32:00,54.0,-99.9,30.09,North,-999,-999.0,-999.0,-999,-99.99,,,-99.99,,2013-04-23 07:32:00,
2013-04-23 03:42:00,54.0,-99.9,30.09,North,-999,-999.0,-999.0,-999,-99.99,,,-99.99,,2013-04-23 07:42:00,
2013-04-23 03:52:00,54.0,-99.9,30.09,North,-999,-999.0,-999.0,-999,-99.99,,,-99.99,,2013-04-23 07:52:00,
2013-04-23 04:02:00,-999.0,-99.9,30.09,North,3,19.0,24.0,-999,-99.99,,,-99.99,,2013-04-23 08:02:00,
2013-04-23 04:11:00,54.0,-99.9,30.09,North,-999,-999.0,-999.0,-999,-99.99,,,-99.99,,2013-04-23 08:11:00,
2013-04-23 04:22:00,54.0,-99.9,30.08,North,-999,-999.0,-999.0,-999,-99.99,,,-99.99,,2013-04-23 08:22:00,
2013-04-23 04:32:00,54.0,-99.9,30.08,North,-999,-999.0,-999.0,-999,-99.99,,,-99.99,,2013-04-23 08:32:00,
2013-04-23 04:42:00,54.0,-99.9,30.09,North,-999,-999.0,-999.0,-999,-99.99,,,-99.99,,2013-04-23 08:42:00,
2013-04-23 04:52:00,54.0,-99.9,30.08,North,-999,-999.0,-999.0,-999,-99.99,,,-99.99,,2013-04-23 08:52:00,
2013-04-23 05:02:00,54.0,-99.9,30.09,North,-999,-999.0,-999.0,-999,-99.99,,,-99.99,,2013-04-23 09:02:00,
2013-04-23 05:11:00,54.0,-99.9,30.09,North,-999,-999.0,-999.0,-999,-99.99,,,-99.99,,2013-04-23 09:11:00,
2013-04-23 05:22:00,54.0,-99.9,30.09,North,-999,-999.0,-999.0,-999,-99.99,,,-99.99,,2013-04-23 09:22:00,
2013-04-23 05:33:00,-999.0,-99.9,30.09,North,7,23.0,28.0,-999,-99.99,,,-99.99,,2013-04-23 09:33:00,
2013-04-23 05:43:00,54.0,-99.9,30.09,North,4,19.0,28.0,-999,-99.99,,,-99.99,,2013-04-23 09:43:00,
2013-04-23 05:53:00,-999.0,-99.9,30.08,North,3,17.0,23.0,-999,-99.99,,,-99.99,,2013-04-23 09:53:00,
2013-04-23 06:03:00,-999.0,-99.9,30.08,North,4,17.0,23.0,-999,-99.99,,,-99.99,,2013-04-23 10:03:00,
2013-04-23 06:13:00,54.0,-99.9,30.09,North,-999,-999.0,-999.0,-999,-99.99,,,-99.99,,2013-04-23 10:13:00,
2013-04-23 06:23:00,-999.0,-99.9,30.09,North,9,17.0,23.0,-999,-99.99,,,-99.99,,2013-04-23 10:23:00,
2013-04-23 06:33:00,54.0,-99.9,30.09,North,-999,-999.0,-999.0,-999,-99.99,,,-99.99,,2013-04-23 10:33:00,
2013-04-23 06:43:00,54.0,-99.9,30.09,North,-999,-999.0,-999.0,-999,-99.99,,,-99.99,,2013-04-23 10:43:00,
2013-04-23 06:53:00,54.0,-99.9,30.09,North,-999,-999.0,-999.0,-999,-99.99,,,-99.99,,2013-04-23 10:53:00,
2013-04-23 07:03:00,54.0,-99.9,30.10,North,-999,-999.0,-999.0,-999,-99.99,,,-99.99,,2013-04-23 11:03:00,
2013-04-23 07:12:00,54.0,-99.9,30.10,North,-999,-999.0,-999.0,-999,-99.99,,,-99.99,,2013-04-23 11:12:00,
2013-04-23 07:22:00,-999.0,-99.9,30.10,North,5,18.0,22.0,-999,-99.99,,,-99.99,,2013-04-23 11:22:00,
2013-04-23 07:33:00,54.0,-99.9,30.11,North,-999,-999.0,-999.0,-999,-99.99,,,-99.99,,2013-04-23 11:33:00,
2013-04-23 07:43:00,54.0,-99.9,30.11,North,-999,-999.0,-999.0,-999,-99.99,,,-99.99,,2013-04-23 11:43:00,
2013-04-23 07:53:00,54.0,-99.9,30.12,North,-999,-999.0,-999.0,-999,-99.99,,,-99.99,,2013-04-23 11:53:00,
2013-04-23 08:02:00,54.0,-99.9,30.12,North,-999,-999.0,-999.0,-999,-99.99,,,-99.99,,2013-04-23 12:02:00,
2013-04-23 08:12:00,54.0,-99.9,30.12,North,7,19.0,23.0,-999,-99.99,,,-99.99,,2013-04-23 12:12:00,
2013-04-23 08:22:00,54.0,-99.9,30.12,North,-999,-999.0,-999.0,-999,-99.99,,,-99.99,,2013-04-23 12:22:00,
2013-04-23 08:32:00,-999.0,-99.9,30.13,North,3,15.0,23.0,-999,-99.99,,,-99.99,,2013-04-23 12:32:00,
2013-04-23 08:42:00,-999.0,-99.9,30.13,North,3,17.0,20.0,-999,-99.99,,,-99.99,,2013-04-23 12:42:00,
2013-04-23 08:52:00,54.0,-99.9,30.13,North,-999,-999.0,-999.0,-999,-99.99,,,-99.99,,2013-04-23 12:52:00,
2013-04-23 09:01:00,54.0,-99.9,30.13,North,-999,-999.0,-999.0,-999,-99.99,,,-99.99,,2013-04-23 13:01:00,
2013-04-23 09:12:00,-999.0,-99.9,30.14,North,3,19.0,23.0,-999,-99.99,,,-99.99,,2013-04-23 13:12:00,
2013-04-23 09:22:00,54.0,-99.9,30.14,North,-999,-999.0,-999.0,-999,-99.99,,,-99.99,,2013-04-23 13:22:00,
2013-04-23 09:32:00,-999.0,-99.9,30.14,North,7,16.0,23.0,-999,-99.99,,,-99.99,,2013-04-23 13:32:00,
2013-04-23 09:42:00,54.0,-99.9,30.14,North,-999,-999.0,-999.0,-999,-99.99,,,-99.99,,2013-04-23 13:42:00,
2013-04-23 09:52:00,54.0,-99.9,30.14,North,-999,-999.0,-999.0,-999,-99.99,,,-99.99,,2013-04-23 13:52:00,
2013-04-23 10:02:00,54.0,-99.9,30.15,North,-999,-999.0,-999.0,-999,-99.99,,,-99.99,,2013-04-23 14:02:00,
2013-04-23 10:11:00,-999.0,-99.9,30.14,North,11,19.0,27.0,-999,-99.99,,,-99.99,,2013-04-23 14:11:00,
2013-04-23 10:22:00,-999.0,-99.9,30.14,NNE,13,18.0,23.0,-999,-99.99,,,-99.99,,2013-04-23 14:22:00,
2013-04-23 10:32:00,55.0,-99.9,30.15,North,-999,-999.0,-999.0,-999,-99.99,,,-99.99,,2013-04-23 14:32:00,
2013-04-23 10:42:00,55.0,-99.9,30.15,NNE,16,17.0,22.0,-999,-99.99,,,-99.99,,2013-04-23 14:42:00,
2013-04-23 11:12:00,-999.0,-99.9,30.16,North,8,21.0,25.0,-999,-99.99,,,-99.99,,2013-04-23 15:12:00,
2013-04-23 11:43:00,-999.0,-99.9,30.15,North,355,18.0,24.0,-999,-99.99,,,-99.99,,2013-04-23 15:43:00,
2013-04-23 11:53:00,-999.0,-99.9,30.15,North,7,18.0,24.0,-999,-99.99,,,-99.99,,2013-04-23 15:53:00,
2013-04-23 12:03:00,-999.0,-99.9,30.15,NNE,14,19.0,28.0,-999,-99.99,,,-99.99,,2013-04-23 16:03:00,
2013-04-23 12:12:00,58.0,-99.9,30.15,North,10,14.0,23.0,-999,-99.99,,,-99.99,,2013-04-23 16:12:00,
2013-04-23 12:23:00,57.0,-99.9,30.16,North,-999,-999.0,-999.0,-999,-99.99,,,-99.99,,2013-04-23 16:23:00,
2013-04-23 12:34:00,58.0,-99.9,30.15,North,-999,-999.0,-999.0,-999,-99.99,,,-99.99,,2013-04-23 16:34:00,
2013-04-23 12:43:00,58.0,-99.9,30.16,North,-999,-999.0,-999.0,-999,-99.99,,,-99.99,,2013-04-23 16:43:00,
2013-04-23 12:53:00,-999.0,-99.9,30.16,NNE,12,19.0,23.0,-999,-99.99,,,-99.99,,2013-04-23 16:53:00,
2013-04-23 13:03:00,-999.0,-99.9,30.16,NNW,346,17.0,20.0,-999,-99.99,,,-99.99,,2013-04-23 17:03:00,
2013-04-23 13:12:00,58.0,-99.9,30.16,North,359,17.0,21.0,-999,-99.99,,,-99.99,,2013-04-23 17:12:00,
2013-04-23 13:22:00,58.0,-99.9,30.15,North,-999,-999.0,-999.0,-999,-99.99,,,-99.99,,2013-04-23 17:22:00,
2013-04-23 13:33:00,-999.0,-99.9,30.15,North,8,16.0,22.0,-999,-99.99,,,-99.99,,2013-04-23 17:33:00,
2013-04-23 13:43:00,58.0,-99.9,30.15,North,-999,-999.0,-999.0,-999,-99.99,,,-99.99,,2013-04-23 17:43:00,
2013-04-23 13:53:00,-999.0,-99.9,30.15,North,3,16.0,20.0,-999,-99.99,,,-99.99,,2013-04-23 17:53:00,
2013-04-23 14:02:00,58.0,-99.9,30.15,North,-999,-999.0,-999.0,-999,-99.99,,,-99.99,,2013-04-23 18:02:00,
2013-04-23 14:12:00,58.0,-99.9,30.15,North,-999,-999.0,-999.0,-999,-99.99,,,-99.99,,2013-04-23 18:12:00,
2013-04-23 14:22:00,-999.0,-99.9,30.15,NNW,348,13.0,22.0,-999,-99.99,,,-99.99,,2013-04-23 18:22:00,
2013-04-23 14:32:00,58.0,-99.9,30.15,North,-999,-999.0,-999.0,-999,-99.99,,,-99.99,,2013-04-23 18:32:00,
2013-04-23 14:42:00,-999.0,-99.9,30.15,North,7,15.0,19.0,-999,-99.99,,,-99.99,,2013-04-23 18:42:00,
2013-04-23 14:52:00,-999.0,-99.9,30.15,North,6,16.0,20.0,-999,-99.99,,,-99.99,,2013-04-23 18:52:00,
2013-04-23 15:02:00,59.0,-99.9,30.15,North,-999,-999.0,-999.0,-999,-99.99,,,-99.99,,2013-04-23 19:02:00,
2013-04-23 15:11:00,59.0,-99.9,30.15,North,-999,-999.0,-999.0,-999,-99.99,,,-99.99,,2013-04-23 19:11:00,
2013-04-23 15:22:00,60.0,-99.9,30.16,North,-999,-999.0,-999.0,-999,-99.99,,,-99.99,,2013-04-23 19:22:00,
2013-04-23 15:33:00,60.0,-99.9,30.16,North,-999,-999.0,-999.0,-999,-99.99,,,-99.99,,2013-04-23 19:33:00,
2013-04-23 15:42:00,60.0,-99.9,30.16,North,350,13.0,19.0,-999,-99.99,,,-99.99,,2013-04-23 19:42:00,
2013-04-23 15:52:00,-999.0,-99.9,30.15,North,1,14.0,19.0,-999,-99.99,,,-99.99,,2013-04-23 19:52:00,
2013-04-23 16:02:00,60.0,-99.9,30.15,North,-999,-999.0,-999.0,-999,-99.99,,,-99.99,,2013-04-23 20:02:00,
2013-04-23 16:11:00,-999.0,-99.9,30.15,North,9,16.0,23.0,-999,-99.99,,,-99.99,,2013-04-23 20:11:00,
2013-04-23 16:22:00,60.0,-99.9,30.14,North,-999,-999.0,-999.0,-999,-99.99,,,-99.99,,2013-04-23 20:22:00,
2013-04-23 16:32:00,-999.0,-99.9,30.13,North,3,15.0,21.0,-999,-99.99,,,-99.99,,2013-04-23 20:32:00,
2013-04-23 16:42:00,60.0,-99.9,30.14,North,-999,-999.0,-999.0,-999,-99.99,,,-99.99,,2013-04-23 20:42:00,
2013-04-23 16:52:00,-999.0,-99.9,30.14,North,6,16.0,18.0,-999,-99.99,,,-99.99,,2013-04-23 20:52:00,
2013-04-23 17:02:00,61.0,-99.9,30.13,North,-999,-999.0,-999.0,-999,-99.99,,,-99.99,,2013-04-23 21:02:00,
2013-04-23 17:12:00,-999.0,-99.9,30.13,North,1,14.0,19.0,-999,-99.99,,,-99.99,,2013-04-23 21:12:00,
2013-04-23 17:22:00,-999.0,-99.9,30.14,North,1,16.0,20.0,-999,-99.99,,,-99.99,,2013-04-23 21:22:00,
2013-04-23 17:33:00,60.0,-99.9,30.13,North,-999,-999.0,-999.0,-999,-99.99,,,-99.99,,2013-04-23 21:33:00,
2013-04-23 17:43:00,-999.0,-99.9,30.13,North,10,13.0,18.0,-999,-99.99,,,-99.99,,2013-04-23 21:43:00,
2013-04-23 17:53:00,-999.0,-99.9,30.12,NNE,21,12.0,19.0,-999,-99.99,,,-99.99,,2013-04-23 21:53:00,
2013-04-23 18:03:00,60.0,-99.9,30.13,North,-999,-999.0,-999.0,-999,-99.99,,,-99.99,,2013-04-23 22:03:00,
2013-04-23 18:12:00,60.0,-99.9,30.13,NNE,32,9.0,18.0,-999,-99.99,,,-99.99,,2013-04-23 22:12:00,
2013-04-23 18:23:00,60.0,-99.9,30.13,North,-999,-999.0,-999.0,-999,-99.99,,,-99.99,,2013-04-23 22:23:00,
2013-04-23 18:33:00,-999.0,-99.9,30.13,NE,42,10.0,13.0,-999,-99.99,,,-99.99,,2013-04-23 22:33:00,
2013-04-23 18:42:00,60.0,-99.9,30.13,North,-999,-999.0,-999.0,-999,-99.99,,,-99.99,,2013-04-23 22:42:00,
2013-04-23 18:53:00,60.0,-99.9,30.14,North,-999,-999.0,-999.0,-999,-99.99,,,-99.99,,2013-04-23 22:53:00,
2013-04-23 19:03:00,-999.0,-99.9,30.14,NNE,31,8.0,13.0,-999,-99.99,,,-99.99,,2013-04-23 23:03:00,
2013-04-23 19:12:00,59.0,-99.9,30.14,NE,43,9.0,10.0,-999,-99.99,,,-99.99,,2013-04-23 23:12:00,
2013-04-23 19:22:00,-999.0,-99.9,30.14,NNE,30,7.0,12.0,-999,-99.99,,,-99.99,,2013-04-23 23:22:00,
2013-04-23 19:32:00,59.0,-99.9,30.15,North,-999,-999.0,-999.0,-999,-99.99,,,-99.99,,2013-04-23 23:32:00,
2013-04-23 19:42:00,59.0,-99.9,30.15,North,-999,-999.0,-999.0,-999,-99.99,,,-99.99,,2013-04-23 23:42:00,
2013-04-23 19:52:00,-999.0,-99.9,30.15,NNE,32,6.0,11.0,-999,-99.99,,,-99.99,,2013-04-23 23:52:00,
2013-04-23 20:02:00,58.0,-99.9,30.15,North,-999,-999.0,-999.0,-999,-99.99,,,-99.99,,2013-04-24 00:02:00,
2013-04-23 20:12:00,-999.0,-99.9,30.15,NE,43,7.0,9.0,-999,-99.99,,,-99.99,,2013-04-24 00:12:00,
2013-04-23 20:22:00,-999.0,-99.9,30.15,NE,47,6.0,8.0,-999,-99.99,,,-99.99,,2013-04-24 00:22:00,
2013-04-23 20:32:00,-999.0,-99.9,30.16,NE,46,4.0,7.0,-999,-99.99,,,-99.99,,2013-04-24 00:32:00,
2013-04-23 20:42:00,56.0,-99.9,30.16,NE,38,4.0,6.0,-999,-99.99,,,-99.99,,2013-04-24 00:42:00,
2013-04-23 20:52:00,-999.0,-99.9,30.16,NE,38,4.0,6.0,-999,-99.99,,,-99.99,,2013-04-24 00:52:00,
2013-04-23 21:02:00,56.0,-99.9,30.16,North,-999,-999.0,-999.0,-999,-99.99,,,-99.99,,2013-04-24 01:02:00,
2013-04-23 21:12:00,-999.0,-99.9,30.16,NE,55,4.0,6.0,-999,-99.99,,,-99.99,,2013-04-24 01:12:00,
2013-04-23 21:22:00,-999.0,-99.9,30.17,NE,47,4.0,7.0,-999,-99.99,,,-99.99,,2013-04-24 01:22:00,
2013-04-23 21:32:00,-999.0,-99.9,30.17,ENE,72,2.0,6.0,-999,-99.99,,,-99.99,,2013-04-24 01:32:00,
2013-04-23 21:43:00,55.0,-99.9,30.17,ENE,62,3.0,4.0,-999,-99.99,,,-99.99,,2013-04-24 01:43:00,
2013-04-23 21:52:00,55.0,-99.9,30.17,North,-999,-999.0,-999.0,-999,-99.99,,,-99.99,,2013-04-24 01:52:00,
2013-04-23 22:02:00,-999.0,-99.9,30.18,East,86,3.0,4.0,-999,-99.99,,,-99.99,,2013-04-24 02:02:00,
2013-04-23 22:20:00,-999.0,-99.9,30.18,East,85,2.0,5.0,-999,-99.99,,,-99.99,,2013-04-24 02:20:00,
2013-04-23 22:30:00,-999.0,-99.9,30.18,East,81,2.0,3.0,-999,-99.99,,,-99.99,,2013-04-24 02:30:00,
2013-04-23 22:42:00,-999.0,-99.9,30.18,East,84,2.0,3.0,-999,-99.99,,,-99.99,,2013-04-24 02:42:00,
2013-04-23 22:51:00,55.0,-99.9,30.18,North,-999,-999.0,-999.0,-999,-99.99,,,-99.99,,2013-04-24 02:51:00,
2013-04-23 23:02:00,55.0,-99.9,30.18,North,-999,-999.0,-999.0,-999,-99.99,,,-99.99,,2013-04-24 03:02:00,
2013-04-23 23:12:00,-999.0,-99.9,30.19,ENE,75,2.0,3.0,-999,-99.99,,,-99.99,,2013-04-24 03:12:00,
2013-04-23 23:33:00,-999.0,-99.9,30.18,East,79,2.0,4.0,-999,-99.99,,,-99.99,,2013-04-24 03:33:00,
2013-04-23 23:55:00,-999.0,-99.9,30.18,East,80,3.0,4.0,-999,-99.99,,,-99.99,,2013-04-24 03:55:00,